Time;durP1;ratioP1;P1;durP2;ratioP2;P2;SDS_P1;SDS_P2;PMS_P1;PMS_P2;Temp;Humidity;BMP_temperature;BMP_pressure;BME280_temperature;BME280_humidity;BME280_pressure;Samples;Min_cycle;Max_cycle;Signal;HPM_P1;HPM_P2
2023/09/06 00:01:07;;;;;;;98.72;73.43;;;26.20;99.90;;;;;;5072974;28;20535;-70
2023/09/06 00:03:36;;;;;;;104.07;75.30;;;26.20;99.90;;;;;;5072651;28;20044;-70
2023/09/06 00:06:03;;;;;;;91.57;70.90;;;26.20;99.90;;;;;;5072869;28;20485;-68
2023/09/06 00:08:33;;;;;;;95.50;70.20;;;26.20;99.90;;;;;;5072782;28;20029;-69
2023/09/06 00:11:06;;;;;;;97.95;71.45;;;26.20;99.90;;;;;;5072977;28;20052;-69
2023/09/06 00:13:34;;;;;;;95.32;73.10;;;26.20;99.90;;;;;;5072826;28;20482;-68
2023/09/06 00:16:02;;;;;;;94.68;70.15;;;26.10;99.90;;;;;;5073450;28;20052;-67
2023/09/06 00:18:28;;;;;;;98.50;72.82;;;26.20;99.90;;;;;;5072851;28;20025;-68
2023/09/06 00:20:57;;;;;;;96.82;67.88;;;26.20;99.90;;;;;;5072833;28;20025;-69
2023/09/06 00:23:25;;;;;;;95.30;70.63;;;26.20;99.90;;;;;;5072605;28;20031;-69
2023/09/06 00:25:53;;;;;;;88.90;70.10;;;26.30;99.90;;;;;;5072785;28;20025;-69
2023/09/06 00:28:20;;;;;;;101.78;72.07;;;26.30;99.90;;;;;;5072855;28;20068;-68
2023/09/06 00:30:47;;;;;;;101.82;70.15;;;26.30;99.90;;;;;;5072557;28;20032;-68
2023/09/06 00:33:13;;;;;;;112.10;81.35;;;26.40;99.90;;;;;;5072652;28;20398;-68
2023/09/06 00:35:40;;;;;;;106.10;70.85;;;26.40;99.90;;;;;;5072882;28;20140;-69
2023/09/06 00:38:06;;;;;;;133.38;85.43;;;26.50;99.90;;;;;;5072499;28;20467;-67
2023/09/06 00:40:36;;;;;;;98.55;70.00;;;26.60;99.90;;;;;;5072730;28;20031;-69
2023/09/06 00:43:04;;;;;;;90.20;66.75;;;26.60;99.90;;;;;;5072629;28;20017;-69
2023/09/06 00:45:48;;;;;;;90.20;66.88;;;26.60;99.90;;;;;;5072701;28;20048;-68
2023/09/06 00:48:21;;;;;;;91.07;60.58;;;26.80;99.90;;;;;;5072377;28;20029;-69
2023/09/06 00:50:51;;;;;;;89.88;61.72;;;26.80;99.90;;;;;;5071603;28;20056;-69
2023/09/06 00:53:20;;;;;;;108.88;67.60;;;26.90;99.90;;;;;;5072659;28;20423;-69
2023/09/06 00:55:48;;;;;;;95.03;63.67;;;27.00;99.90;;;;;;5072523;28;20040;-69
2023/09/06 00:58:16;;;;;;;85.38;61.58;;;27.10;99.90;;;;;;5072154;28;20025;-68
2023/09/06 01:00:45;;;;;;;78.22;58.90;;;27.10;99.90;;;;;;5073696;28;20020;-68
2023/09/06 01:03:13;;;;;;;83.00;55.50;;;27.20;99.90;;;;;;5080376;28;20406;-68
2023/09/06 01:06:04;;;;;;;82.13;57.20;;;27.20;99.90;;;;;;5075951;28;20029;-68
2023/09/06 01:08:39;;;;;;;74.55;54.20;;;27.30;99.90;;;;;;5079909;28;20024;-68
2023/09/06 01:11:21;;;;;;;73.63;53.75;;;27.40;99.90;;;;;;5096467;28;20505;-70
2023/09/06 01:13:54;;;;;;;83.40;52.07;;;27.40;99.90;;;;;;5085253;28;20039;-69
2023/09/06 01:16:42;;;;;;;73.93;53.95;;;27.50;99.90;;;;;;5075934;28;20032;-69
2023/09/06 01:19:13;;;;;;;70.03;50.40;;;27.60;99.90;;;;;;5075542;28;20061;-68
2023/09/06 01:21:48;;;;;;;64.72;47.25;;;27.70;99.90;;;;;;5075643;28;20025;-71
2023/09/06 01:24:16;;;;;;;70.50;47.35;;;27.80;99.90;;;;;;5075789;28;20483;-71
2023/09/06 01:26:43;;;;;;;65.25;47.83;;;27.90;99.90;;;;;;5075571;28;20059;-67
2023/09/06 01:29:09;;;;;;;64.60;47.20;;;27.90;99.90;;;;;;5075636;28;20047;-72
2023/09/06 01:31:36;;;;;;;65.00;47.60;;;28.00;99.90;;;;;;5080885;28;20024;-69
2023/09/06 01:34:02;;;;;;;59.08;45.50;;;28.00;99.90;;;;;;5080381;28;20025;-69
2023/09/06 01:36:29;;;;;;;60.78;44.63;;;28.10;99.90;;;;;;5094422;28;20024;-69
2023/09/06 01:38:56;;;;;;;67.03;44.85;;;28.20;99.90;;;;;;5081942;28;20021;-69
2023/09/06 01:41:22;;;;;;;62.00;43.95;;;28.30;99.90;;;;;;5075168;28;20479;-69
2023/09/06 01:43:53;;;;;;;59.30;44.20;;;28.30;99.90;;;;;;5075318;28;20025;-68
2023/09/06 01:46:23;;;;;;;62.03;44.23;;;28.30;99.90;;;;;;5075426;28;20028;-69
2023/09/06 01:48:49;;;;;;;56.92;44.60;;;28.40;99.90;;;;;;5080178;28;20020;-69
2023/09/06 01:51:16;;;;;;;62.75;45.22;;;28.50;99.90;;;;;;5081633;28;20402;-69
2023/09/06 01:53:43;;;;;;;71.95;48.30;;;28.60;99.90;;;;;;5085385;28;20175;-66
2023/09/06 01:56:09;;;;;;;65.05;49.97;;;28.60;99.90;;;;;;5074878;28;20040;-68
2023/09/06 01:58:37;;;;;;;80.20;54.60;;;28.70;99.90;;;;;;5075135;28;20074;-68
2023/09/06 02:01:04;;;;;;;77.32;54.30;;;28.70;99.90;;;;;;5075076;28;20146;-68
2023/09/06 02:03:33;;;;;;;81.55;57.53;;;28.70;99.90;;;;;;5086532;28;20040;-68
2023/09/06 02:06:02;;;;;;;96.40;61.60;;;28.80;99.90;;;;;;5078221;28;20043;-68
2023/09/06 02:08:28;;;;;;;81.68;58.40;;;28.80;99.90;;;;;;5095336;28;20484;-68
2023/09/06 02:10:55;;;;;;;107.30;69.10;;;28.80;99.90;;;;;;5091119;28;20031;-68
2023/09/06 02:13:21;;;;;;;102.90;68.32;;;28.90;99.90;;;;;;5088965;28;20024;-69
2023/09/06 02:15:48;;;;;;;110.05;70.82;;;29.00;99.90;;;;;;5084394;28;20034;-68
2023/09/06 02:18:17;;;;;;;118.45;77.72;;;29.00;99.90;;;;;;5075055;28;20020;-69
2023/09/06 02:20:44;;;;;;;120.72;76.72;;;29.10;99.90;;;;;;5075781;28;20085;-69
2023/09/06 02:23:11;;;;;;;132.32;83.22;;;29.20;99.90;;;;;;5075067;28;20028;-67
2023/09/06 02:25:38;;;;;;;141.88;85.40;;;29.30;99.90;;;;;;5086425;28;20020;-69
2023/09/06 02:28:05;;;;;;;155.07;93.88;;;29.40;99.90;;;;;;5081090;28;20037;-68
2023/09/06 02:30:33;;;;;;;153.68;95.50;;;29.50;99.90;;;;;;5081776;28;20116;-70
2023/09/06 02:33:00;;;;;;;162.77;99.43;;;29.50;99.90;;;;;;5083603;28;20025;-71
2023/09/06 02:35:27;;;;;;;164.45;102.75;;;29.60;99.90;;;;;;5058951;28;20356;-71
2023/09/06 02:37:53;;;;;;;160.35;101.18;;;29.60;99.90;;;;;;5073639;28;20046;-71
2023/09/06 02:40:20;;;;;;;176.68;103.60;;;29.60;99.90;;;;;;5074145;28;20096;-72
2023/09/06 02:42:48;;;;;;;161.40;95.82;;;29.80;99.90;;;;;;5074062;28;20360;-67
2023/09/06 02:45:15;;;;;;;153.32;92.57;;;29.90;99.90;;;;;;5073842;28;20386;-67
2023/09/06 02:47:50;;;;;;;157.25;94.45;;;30.00;99.90;;;;;;5073569;28;20039;-67
2023/09/06 02:50:24;;;;;;;142.40;89.28;;;30.00;99.90;;;;;;5080240;28;20036;-66
2023/09/06 02:52:53;;;;;;;146.73;87.60;;;30.10;99.90;;;;;;5082458;28;20077;-67
2023/09/06 02:55:19;;;;;;;141.65;85.75;;;30.10;99.90;;;;;;5092029;28;20048;-67
2023/09/06 02:57:46;;;;;;;129.80;81.13;;;30.20;99.90;;;;;;5091943;28;20070;-67
2023/09/06 03:03:09;;;;;;;108.22;65.72;;;30.30;99.90;;;;;;5092911;28;20079;-67
2023/09/06 03:05:47;;;;;;;115.53;70.28;;;30.30;99.90;;;;;;5093586;28;20016;-67
2023/09/06 03:08:14;;;;;;;120.72;72.13;;;30.40;99.90;;;;;;5076543;28;20035;-66
2023/09/06 03:10:44;;;;;;;123.20;75.32;;;30.50;99.90;;;;;;5062192;28;20032;-66
2023/09/06 03:13:11;;;;;;;143.93;86.18;;;30.60;99.90;;;;;;5064838;28;20052;-67
2023/09/06 03:15:37;;;;;;;187.95;108.13;;;30.70;99.90;;;;;;5074796;28;20032;-67
2023/09/06 03:18:05;;;;;;;196.10;113.50;;;30.70;99.90;;;;;;5079078;28;20028;-68
2023/09/06 03:20:33;;;;;;;203.27;117.57;;;30.80;99.90;;;;;;5053743;28;20029;-69
2023/09/06 03:23:01;;;;;;;191.07;115.68;;;30.90;99.90;;;;;;5053291;28;20017;-70
2023/09/06 03:25:29;;;;;;;214.57;123.05;;;30.90;99.90;;;;;;5053476;28;20104;-69
2023/09/06 03:28:00;;;;;;;230.25;138.32;;;31.00;99.90;;;;;;5053547;28;20052;-65
2023/09/06 03:30:28;;;;;;;258.52;152.00;;;31.10;99.90;;;;;;5053454;28;20102;-66
2023/09/06 03:32:55;;;;;;;268.58;146.27;;;31.10;99.90;;;;;;5053339;28;20060;-66
2023/09/06 03:35:24;;;;;;;264.38;149.20;;;31.10;99.90;;;;;;5053123;28;20483;-67
2023/09/06 03:37:50;;;;;;;229.70;136.57;;;31.20;99.90;;;;;;5053180;28;20546;-67
2023/09/06 03:40:42;;;;;;;206.48;121.57;;;31.30;99.90;;;;;;5053194;28;20491;-67
2023/09/06 03:43:14;;;;;;;189.25;112.25;;;31.30;99.90;;;;;;5052095;28;20048;-66
2023/09/06 03:45:44;;;;;;;168.05;104.57;;;31.40;99.90;;;;;;5053050;28;20044;-66
2023/09/06 03:48:12;;;;;;;202.73;120.32;;;31.40;99.90;;;;;;5053247;28;20502;-67
2023/09/06 03:50:39;;;;;;;223.20;133.70;;;31.50;99.90;;;;;;5053137;28;20090;-67
2023/09/06 03:53:06;;;;;;;229.50;135.02;;;31.50;99.90;;;;;;5053218;28;20063;-66
2023/09/06 03:55:32;;;;;;;196.35;112.07;;;31.50;99.90;;;;;;5053242;28;20466;-67
2023/09/06 03:57:59;;;;;;;175.48;103.32;;;31.50;99.90;;;;;;5053083;28;20517;-66
2023/09/06 04:00:31;;;;;;;130.57;83.10;;;31.60;99.90;;;;;;5053028;28;20024;-67
2023/09/06 04:02:58;;;;;;;138.45;84.18;;;31.70;99.90;;;;;;5052590;28;20041;-67
2023/09/06 04:05:26;;;;;;;119.18;77.50;;;31.70;99.90;;;;;;5052988;28;20047;-67
2023/09/06 04:07:56;;;;;;;93.00;60.40;;;31.70;99.90;;;;;;5056974;28;20032;-68
2023/09/06 04:10:24;;;;;;;77.68;49.78;;;31.70;99.90;;;;;;5073069;28;20032;-68
2023/09/06 04:12:53;;;;;;;67.30;41.53;;;31.70;99.90;;;;;;5072880;28;20024;-68
2023/09/06 04:15:22;;;;;;;61.28;41.50;;;31.70;99.90;;;;;;5073006;28;20073;-67
2023/09/06 04:17:58;;;;;;;47.33;34.42;;;31.70;99.90;;;;;;5072808;28;20390;-67
2023/09/06 04:20:27;;;;;;;42.03;27.38;;;31.70;99.90;;;;;;5072379;28;20032;-67
2023/09/06 04:22:55;;;;;;;38.85;26.77;;;31.90;99.90;;;;;;5072818;28;20021;-68
2023/09/06 04:25:22;;;;;;;38.13;27.67;;;32.10;99.90;;;;;;5072863;28;20029;-67
2023/09/06 04:27:54;;;;;;;35.47;24.83;;;32.30;99.90;;;;;;5072742;28;20039;-67
2023/09/06 04:30:24;;;;;;;32.45;23.73;;;32.40;99.90;;;;;;5072869;28;20024;-67
2023/09/06 04:32:51;;;;;;;35.03;24.65;;;32.50;99.90;;;;;;5072707;28;20478;-67
2023/09/06 04:35:18;;;;;;;37.63;25.13;;;32.50;99.90;;;;;;5074707;28;20032;-67
2023/09/06 04:37:45;;;;;;;31.15;24.27;;;32.50;99.90;;;;;;5076848;28;20036;-67
2023/09/06 04:40:13;;;;;;;34.78;24.42;;;32.50;99.90;;;;;;5076633;28;20078;-68
2023/09/06 04:42:41;;;;;;;32.17;23.75;;;32.60;99.90;;;;;;5076794;28;20030;-67
2023/09/06 04:45:10;;;;;;;33.15;24.77;;;32.60;99.90;;;;;;5076894;28;20016;-67
2023/09/06 04:47:39;;;;;;;31.95;25.67;;;32.60;99.90;;;;;;5076534;28;20036;-67
2023/09/06 04:50:07;;;;;;;38.50;26.63;;;32.70;99.90;;;;;;5075693;28;20035;-67
2023/09/06 04:52:38;;;;;;;41.78;29.20;;;32.70;99.90;;;;;;5076496;28;20360;-66
2023/09/06 04:55:07;;;;;;;38.63;26.90;;;32.80;99.90;;;;;;5076085;28;20027;-66
2023/09/06 04:57:36;;;;;;;38.88;25.42;;;33.00;99.90;;;;;;5076166;28;20032;-67
2023/09/06 05:02:52;;;;;;;46.90;28.92;;;33.00;99.90;;;;;;5088684;28;20109;-67
2023/09/06 05:05:18;;;;;;;41.72;30.23;;;32.90;99.90;;;;;;5096513;28;20050;-64
2023/09/06 05:07:45;;;;;;;47.72;29.00;;;33.00;99.90;;;;;;5096357;28;20024;-67
2023/09/06 05:10:12;;;;;;;39.33;28.60;;;32.90;99.90;;;;;;5096483;28;20024;-68
2023/09/06 05:12:39;;;;;;;37.70;27.55;;;32.80;99.90;;;;;;5096240;28;20020;-67
2023/09/06 05:15:06;;;;;;;51.65;34.08;;;32.70;99.90;;;;;;5089369;28;20499;-67
2023/09/06 05:17:33;;;;;;;38.63;29.50;;;32.70;99.90;;;;;;5092517;28;20085;-67
2023/09/06 05:20:33;;;;;;;40.88;30.42;;;32.70;99.90;;;;;;5086601;28;20463;-67
2023/09/06 05:23:02;;;;;;;43.97;30.98;;;32.80;99.90;;;;;;5075746;28;20027;-67
2023/09/06 05:25:30;;;;;;;42.28;31.23;;;32.90;99.90;;;;;;5089394;28;20029;-67
2023/09/06 05:28:01;;;;;;;42.90;31.92;;;33.00;99.90;;;;;;5095796;28;20023;-67
2023/09/06 05:30:28;;;;;;;47.72;33.15;;;33.10;99.90;;;;;;5095907;28;20028;-66
2023/09/06 05:32:56;;;;;;;41.10;31.60;;;33.10;99.90;;;;;;5095709;28;20024;-67
2023/09/06 05:35:24;;;;;;;42.78;32.58;;;33.00;99.90;;;;;;5095899;28;20119;-66
2023/09/06 05:37:51;;;;;;;45.50;33.30;;;33.00;99.90;;;;;;5056707;28;20028;-66
2023/09/06 05:40:23;;;;;;;42.33;31.20;;;33.00;99.90;;;;;;5055111;28;20116;-66
2023/09/06 05:42:50;;;;;;;41.25;29.15;;;33.10;99.90;;;;;;5055429;28;20025;-67
2023/09/06 05:45:19;;;;;;;38.53;28.92;;;33.20;99.90;;;;;;5055213;28;20023;-68
2023/09/06 05:47:46;;;;;;;45.97;31.65;;;33.20;99.90;;;;;;5054254;28;20031;-67
2023/09/06 05:50:13;;;;;;;51.10;33.63;;;33.30;99.90;;;;;;5055265;28;20112;-67
2023/09/06 05:52:40;;;;;;;44.67;32.47;;;33.50;99.90;;;;;;5054884;28;20437;-67
2023/09/06 05:55:08;;;;;;;48.22;34.08;;;33.50;99.90;;;;;;5054887;28;20025;-66
2023/09/06 05:57:34;;;;;;;43.67;30.98;;;33.50;99.90;;;;;;5054898;28;20073;-67
2023/09/06 06:00:02;;;;;;;38.60;30.00;;;33.50;99.90;;;;;;5054977;28;20029;-67
2023/09/06 06:02:31;;;;;;;37.17;28.08;;;33.50;99.90;;;;;;5054706;28;20545;-67
2023/09/06 06:04:58;;;;;;;35.45;27.85;;;33.50;99.80;;;;;;5054853;28;20492;-65
2023/09/06 06:07:25;;;;;;;39.83;28.35;;;33.60;99.50;;;;;;5057420;28;20025;-66
2023/09/06 06:09:51;;;;;;;36.08;28.75;;;33.60;99.50;;;;;;5063720;28;20013;-65
2023/09/06 06:12:22;;;;;;;34.70;26.50;;;33.50;99.40;;;;;;5064045;28;20013;-65
2023/09/06 06:14:53;;;;;;;35.53;25.90;;;33.50;99.20;;;;;;5065345;28;20439;-64
2023/09/06 06:17:19;;;;;;;33.78;26.67;;;33.50;99.40;;;;;;5064778;28;20017;-65
2023/09/06 06:19:49;;;;;;;36.30;26.83;;;33.50;99.20;;;;;;5063214;28;20021;-65
2023/09/06 06:22:16;;;;;;;37.83;28.55;;;33.40;98.80;;;;;;5064190;28;20028;-65
2023/09/06 06:24:44;;;;;;;36.40;26.10;;;33.40;99.00;;;;;;5065506;28;20478;-65
2023/09/06 06:27:11;;;;;;;34.22;25.67;;;33.40;99.20;;;;;;5063538;28;20017;-68
2023/09/06 06:29:38;;;;;;;40.15;25.95;;;33.50;99.20;;;;;;5063863;28;20012;-66
2023/09/06 06:32:05;;;;;;;41.03;30.48;;;33.60;99.30;;;;;;5064992;28;20016;-66
2023/09/06 06:34:32;;;;;;;38.22;27.98;;;33.60;98.50;;;;;;5068343;28;20512;-64
2023/09/06 06:36:58;;;;;;;35.78;29.08;;;33.60;98.80;;;;;;5060696;28;20107;-65
2023/09/06 06:39:26;;;;;;;39.83;28.77;;;33.50;99.00;;;;;;5054404;28;20021;-66
2023/09/06 06:41:52;;;;;;;34.35;26.55;;;33.50;99.10;;;;;;5054519;28;20463;-66
2023/09/06 06:44:19;;;;;;;41.35;29.15;;;33.50;99.20;;;;;;5054479;28;20025;-66
2023/09/06 06:46:45;;;;;;;39.40;31.00;;;33.50;99.10;;;;;;5054292;28;20356;-65
2023/09/06 06:49:12;;;;;;;50.80;33.60;;;33.40;99.20;;;;;;5057694;28;20047;-65
2023/09/06 06:51:40;;;;;;;47.60;35.30;;;33.40;99.30;;;;;;5074165;28;20387;-66
2023/09/06 06:54:07;;;;;;;57.10;37.78;;;33.40;99.50;;;;;;5073977;28;20103;-67
2023/09/06 06:56:35;;;;;;;61.05;38.30;;;33.40;99.70;;;;;;5074115;28;20539;-66
2023/09/06 06:59:03;;;;;;;41.95;30.38;;;33.50;99.90;;;;;;5072985;28;20463;-66
2023/09/06 07:01:31;;;;;;;37.55;28.90;;;33.50;99.30;;;;;;5074703;28;20161;-68
2023/09/06 07:03:58;;;;;;;38.30;26.90;;;33.60;99.30;;;;;;5094223;28;20424;-67
2023/09/06 07:06:25;;;;;;;34.13;24.73;;;33.70;98.70;;;;;;5094105;28;20047;-68
2023/09/06 07:08:53;;;;;;;34.40;23.83;;;33.70;98.20;;;;;;5093962;28;20039;-68
2023/09/06 07:11:20;;;;;;;33.80;25.33;;;33.80;98.50;;;;;;5094103;28;20027;-68
2023/09/06 07:13:48;;;;;;;35.95;25.63;;;33.80;98.60;;;;;;5076589;28;20035;-67
2023/09/06 07:16:18;;;;;;;34.17;24.88;;;33.80;98.50;;;;;;5092058;28;20024;-67
2023/09/06 07:18:46;;;;;;;35.72;25.73;;;33.70;98.40;;;;;;5093945;28;20073;-70
2023/09/06 07:21:15;;;;;;;35.22;26.80;;;33.70;98.10;;;;;;5093231;28;20035;-67
2023/09/06 07:23:42;;;;;;;48.65;31.83;;;33.70;98.40;;;;;;5091688;28;20032;-69
2023/09/06 07:26:09;;;;;;;50.30;32.45;;;33.60;98.50;;;;;;5063553;28;20017;-68
2023/09/06 07:28:42;;;;;;;43.28;30.75;;;33.60;98.60;;;;;;5063217;28;20027;-69
2023/09/06 07:31:09;;;;;;;43.35;31.30;;;33.50;98.80;;;;;;5064078;28;20028;-70
2023/09/06 07:33:36;;;;;;;48.17;33.13;;;33.50;99.30;;;;;;5062746;28;20048;-69
2023/09/06 07:36:04;;;;;;;48.55;32.53;;;33.50;98.90;;;;;;5062218;28;20046;-70
2023/09/06 07:38:31;;;;;;;43.38;33.15;;;33.50;99.10;;;;;;5067773;28;20074;-68
2023/09/06 07:41:00;;;;;;;57.45;37.42;;;33.60;99.20;;;;;;5068685;28;20052;-68
2023/09/06 07:43:28;;;;;;;51.78;36.13;;;33.60;98.80;;;;;;5063718;28;20013;-67
2023/09/06 07:45:57;;;;;;;40.40;31.90;;;33.60;98.30;;;;;;5067334;28;20066;-67
2023/09/06 07:48:25;;;;;;;47.72;32.25;;;33.60;98.50;;;;;;5093422;28;20103;-68
2023/09/06 07:50:52;;;;;;;40.15;29.85;;;33.60;98.50;;;;;;5093350;28;20028;-68
2023/09/06 07:53:19;;;;;;;39.22;28.48;;;33.60;98.50;;;;;;5093559;28;20051;-68
2023/09/06 07:55:46;;;;;;;39.28;27.98;;;33.70;98.40;;;;;;5075349;28;20430;-72
2023/09/06 07:58:14;;;;;;;39.28;29.05;;;33.60;98.40;;;;;;5093072;28;20098;-68
2023/09/06 08:00:42;;;;;;;44.33;31.77;;;33.60;98.60;;;;;;5093478;28;20062;-67
2023/09/06 08:03:09;;;;;;;45.78;33.42;;;33.60;98.50;;;;;;5080297;28;20048;-68
2023/09/06 08:05:36;;;;;;;47.25;34.65;;;33.50;98.50;;;;;;5073013;28;20508;-69
2023/09/06 08:08:05;;;;;;;50.95;34.63;;;33.50;98.40;;;;;;5072978;28;20484;-68
2023/09/06 08:10:32;;;;;;;44.63;31.10;;;33.50;98.40;;;;;;5072796;28;20036;-68
2023/09/06 08:12:59;;;;;;;44.35;32.50;;;33.50;98.40;;;;;;5072798;28;20032;-69
2023/09/06 08:15:25;;;;;;;47.25;32.38;;;33.50;98.50;;;;;;5073137;28;20558;-70
2023/09/06 08:17:52;;;;;;;53.65;33.25;;;33.40;98.50;;;;;;5073296;28;20043;-69
2023/09/06 08:20:19;;;;;;;42.55;31.98;;;33.40;98.50;;;;;;5072795;28;20028;-69
2023/09/06 08:22:46;;;;;;;50.50;36.28;;;33.40;98.70;;;;;;5073187;28;20099;-69
2023/09/06 08:25:14;;;;;;;48.17;33.33;;;33.40;99.00;;;;;;5073147;28;20043;-71
2023/09/06 08:27:41;;;;;;;50.42;33.72;;;33.40;99.60;;;;;;5072739;28;20056;-71
2023/09/06 08:30:10;;;;;;;45.47;34.05;;;33.30;99.70;;;;;;5072813;28;20029;-71
2023/09/06 08:32:41;;;;;;;45.70;31.95;;;33.30;99.20;;;;;;5072753;28;20029;-71
2023/09/06 08:35:08;;;;;;;43.95;32.58;;;33.30;98.80;;;;;;5072705;28;20024;-68
2023/09/06 08:37:35;;;;;;;50.63;33.83;;;33.20;98.70;;;;;;5072876;28;20470;-66
2023/09/06 08:40:12;;;;;;;47.22;34.40;;;33.20;98.60;;;;;;5072644;28;20025;-71
2023/09/06 08:42:39;;;;;;;54.33;40.75;;;33.20;99.30;;;;;;5072798;28;20025;-70
2023/09/06 08:45:09;;;;;;;65.70;46.30;;;33.20;99.50;;;;;;5072758;28;20021;-69
2023/09/06 08:47:39;;;;;;;96.30;68.18;;;33.20;99.70;;;;;;5072460;28;20028;-70
2023/09/06 08:50:10;;;;;;;106.78;75.35;;;33.30;99.80;;;;;;5064593;28;20029;-71
2023/09/06 08:52:40;;;;;;;140.43;97.07;;;33.30;99.90;;;;;;5064915;28;20032;-69
2023/09/06 08:55:10;;;;;;;155.52;112.60;;;33.30;99.90;;;;;;5072034;28;20021;-67
2023/09/06 08:57:40;;;;;;;156.43;106.40;;;33.30;99.90;;;;;;5072389;28;20066;-69
2023/09/06 09:00:09;;;;;;;126.88;85.85;;;33.20;99.90;;;;;;5072454;28;20032;-68
2023/09/06 09:02:42;;;;;;;126.15;88.63;;;33.20;99.90;;;;;;5072291;28;20068;-69
2023/09/06 09:05:11;;;;;;;88.07;60.88;;;33.20;99.90;;;;;;5072252;28;20056;-69
2023/09/06 09:07:37;;;;;;;103.57;67.60;;;33.20;99.50;;;;;;5072239;28;20012;-67
2023/09/06 09:10:07;;;;;;;135.52;94.07;;;33.20;99.70;;;;;;5072423;28;20485;-66
2023/09/06 09:12:35;;;;;;;129.52;89.55;;;33.20;99.40;;;;;;5072413;28;20025;-67
2023/09/06 09:15:03;;;;;;;116.05;79.65;;;33.20;99.50;;;;;;5071526;28;20083;-68
2023/09/06 09:17:31;;;;;;;121.25;79.97;;;33.10;99.30;;;;;;5072192;28;20024;-69
2023/09/06 09:20:00;;;;;;;124.70;85.68;;;33.10;99.70;;;;;;5072193;28;20383;-69
2023/09/06 09:22:28;;;;;;;111.20;75.57;;;33.10;99.90;;;;;;5076312;28;20386;-68
2023/09/06 09:25:04;;;;;;;106.95;68.30;;;33.20;99.90;;;;;;5096221;28;20024;-68
2023/09/06 09:27:32;;;;;;;115.78;73.72;;;33.10;99.90;;;;;;5096132;28;20050;-68
2023/09/06 09:30:02;;;;;;;108.80;71.30;;;33.10;99.90;;;;;;5096296;28;20020;-69
2023/09/06 09:32:30;;;;;;;122.07;82.20;;;33.00;99.90;;;;;;5096193;28;20465;-69
2023/09/06 09:34:56;;;;;;;112.97;75.05;;;33.00;99.90;;;;;;5095985;28;20077;-68
2023/09/06 09:37:23;;;;;;;119.78;80.22;;;32.90;99.90;;;;;;5096003;28;20016;-67
2023/09/06 09:39:52;;;;;;;105.13;65.78;;;32.90;99.90;;;;;;5095921;28;20020;-67
2023/09/06 09:42:18;;;;;;;86.78;56.50;;;32.80;99.90;;;;;;5095665;28;20143;-67
2023/09/06 09:45:00;;;;;;;82.10;55.20;;;32.80;99.90;;;;;;5096007;28;20023;-67
2023/09/06 09:47:27;;;;;;;;;;;32.80;99.90;;;;;;5096148;28;20028;-65
2023/09/06 09:49:55;;;;;;;71.40;43.95;;;32.80;99.90;;;;;;5095658;28;19939;-66
2023/09/06 09:52:26;;;;;;;74.38;47.03;;;32.80;99.90;;;;;;5095735;28;20024;-68
2023/09/06 09:54:53;;;;;;;161.20;87.13;;;32.70;99.90;;;;;;5095524;28;20047;-68
2023/09/06 09:57:22;;;;;;;146.48;82.18;;;32.70;99.90;;;;;;5079636;28;20020;-70
2023/09/06 09:59:50;;;;;;;63.55;38.03;;;32.70;99.90;;;;;;5072139;28;20082;-70
2023/09/06 10:02:18;;;;;;;94.88;52.67;;;32.70;99.90;;;;;;5059154;28;20123;-70
2023/09/06 10:04:47;;;;;;;52.08;29.73;;;32.70;99.90;;;;;;5064068;28;20108;-71
2023/09/06 10:07:15;;;;;;;53.40;32.15;;;32.60;99.90;;;;;;5058415;28;20032;-72
2023/09/06 10:09:43;;;;;;;46.15;33.22;;;32.50;99.90;;;;;;5066234;28;20020;-69
2023/09/06 10:12:11;;;;;;;90.97;59.75;;;32.50;99.90;;;;;;5074314;28;20434;-69
2023/09/06 10:14:40;;;;;;;94.45;64.65;;;32.50;99.90;;;;;;5064768;28;20032;-69
2023/09/06 10:17:08;;;;;;;119.13;73.75;;;32.60;99.90;;;;;;5063683;28;20040;-67
2023/09/06 10:19:37;;;;;;;199.50;116.97;;;32.50;99.90;;;;;;5075082;28;20064;-67
2023/09/06 10:22:08;;;;;;;162.57;101.18;;;32.50;99.90;;;;;;5069688;28;20032;-68
2023/09/06 10:24:35;;;;;;;207.23;111.97;;;32.50;99.90;;;;;;5057904;28;20025;-67
2023/09/06 10:27:03;;;;;;;189.65;112.45;;;32.50;99.90;;;;;;5054667;28;20110;-67
2023/09/06 10:29:31;;;;;;;211.70;107.95;;;32.50;99.90;;;;;;5085355;28;20028;-67
2023/09/06 10:32:05;;;;;;;129.98;78.90;;;32.40;99.90;;;;;;5073875;28;20028;-68
2023/09/06 10:34:33;;;;;;;97.47;58.13;;;32.40;99.90;;;;;;5074157;28;20036;-67
2023/09/06 10:37:03;;;;;;;86.03;55.80;;;32.30;99.90;;;;;;5074445;28;20457;-68
2023/09/06 10:39:31;;;;;;;59.50;36.95;;;32.20;99.90;;;;;;5074288;28;20024;-67
2023/09/06 10:42:15;;;;;;;72.20;41.60;;;32.20;99.90;;;;;;5074412;28;20032;-66
2023/09/06 10:45:02;;;;;;;67.72;43.80;;;32.10;99.90;;;;;;5074100;28;20057;-68
2023/09/06 10:47:30;;;;;;;63.13;40.85;;;32.10;99.90;;;;;;5072529;28;20029;-68
2023/09/06 10:50:18;;;;;;;82.07;53.08;;;32.00;99.90;;;;;;5062480;28;20025;-69
2023/09/06 10:52:49;;;;;;;64.80;38.72;;;32.00;99.90;;;;;;5064669;28;20394;-69
2023/09/06 10:55:20;;;;;;;58.08;34.92;;;32.00;99.90;;;;;;5066330;28;20013;-68
2023/09/06 10:57:50;;;;;;;43.42;28.98;;;31.90;99.90;;;;;;5067436;28;20032;-68
2023/09/06 11:00:20;;;;;;;44.15;28.10;;;31.90;99.90;;;;;;5067714;28;20398;-68
2023/09/06 11:03:06;;;;;;;44.10;26.88;;;31.90;99.90;;;;;;5060741;28;20044;-69
2023/09/06 11:05:37;;;;;;;39.88;26.50;;;31.80;99.90;;;;;;5073767;28;20024;-66
2023/09/06 11:08:06;;;;;;;63.63;37.15;;;31.80;99.90;;;;;;5061812;28;20403;-66
2023/09/06 11:10:33;;;;;;;68.00;42.42;;;31.80;99.90;;;;;;5054058;28;20482;-65
2023/09/06 11:13:10;;;;;;;71.20;41.17;;;31.70;99.90;;;;;;5053636;28;20028;-66
2023/09/06 11:15:38;;;;;;;61.78;37.17;;;31.70;99.90;;;;;;5053547;28;20021;-67
2023/09/06 11:18:05;;;;;;;53.63;32.78;;;31.60;99.90;;;;;;5053614;28;20499;-66
2023/09/06 11:20:35;;;;;;;50.63;28.73;;;31.60;99.90;;;;;;5063498;28;20054;-65
2023/09/06 11:23:03;;;;;;;73.05;42.65;;;31.60;99.90;;;;;;5072848;28;20394;-67
2023/09/06 11:25:32;;;;;;;86.85;56.28;;;31.60;99.90;;;;;;5068059;28;20035;-67
2023/09/06 11:28:02;;;;;;;58.42;38.60;;;31.50;99.90;;;;;;5073512;28;20596;-67
2023/09/06 11:30:32;;;;;;;56.65;32.70;;;31.50;99.90;;;;;;5062203;28;20032;-66
2023/09/06 11:32:58;;;;;;;57.28;28.05;;;31.40;99.90;;;;;;5067375;28;20035;-66
2023/09/06 11:35:33;;;;;;;43.20;24.50;;;31.40;99.90;;;;;;5064100;28;20070;-67
2023/09/06 11:38:00;;;;;;;36.28;23.33;;;31.30;99.90;;;;;;5062919;28;20103;-67
2023/09/06 11:40:29;;;;;;;33.05;21.63;;;31.40;99.90;;;;;;5065097;28;20028;-66
2023/09/06 11:43:00;;;;;;;42.47;23.85;;;31.30;99.90;;;;;;5059843;28;20028;-67
2023/09/06 11:45:30;;;;;;;46.15;24.80;;;31.40;99.90;;;;;;5068541;28;20425;-65
2023/09/06 11:47:59;;;;;;;42.50;26.95;;;31.40;99.90;;;;;;5063828;28;20045;-64
2023/09/06 11:50:29;;;;;;;42.05;27.70;;;31.40;99.90;;;;;;5059211;28;20025;-66
2023/09/06 11:52:58;;;;;;;46.78;29.30;;;31.40;99.90;;;;;;5062356;28;20024;-66
2023/09/06 11:55:27;;;;;;;41.50;27.17;;;31.40;99.90;;;;;;5068421;28;20110;-66
2023/09/06 11:57:56;;;;;;;64.85;38.00;;;31.40;99.90;;;;;;5069275;28;20030;-66
2023/09/06 12:00:36;;;;;;;79.40;47.92;;;31.30;99.90;;;;;;5064014;28;20547;-66
2023/09/06 12:03:07;;;;;;;97.32;50.22;;;31.20;99.90;;;;;;5065592;28;20094;-66
2023/09/06 12:05:46;;;;;;;90.38;51.80;;;31.10;99.90;;;;;;5060649;28;20036;-65
2023/09/06 12:08:17;;;;;;;85.88;51.55;;;31.10;99.90;;;;;;5057503;28;20021;-65
2023/09/06 12:10:50;;;;;;;100.03;55.47;;;31.10;99.90;;;;;;5068064;28;20024;-64
2023/09/06 12:13:25;;;;;;;88.68;46.38;;;31.10;99.90;;;;;;5069029;28;20577;-65
2023/09/06 12:15:51;;;;;;;51.50;30.15;;;31.10;99.90;;;;;;5069586;28;20040;-69
2023/09/06 12:18:18;;;;;;;41.75;26.35;;;31.00;99.90;;;;;;5068573;28;20128;-68
2023/09/06 12:20:45;;;;;;;51.50;26.00;;;31.00;99.90;;;;;;5066445;28;20025;-68
2023/09/06 12:23:11;;;;;;;41.22;25.23;;;31.00;99.90;;;;;;5069458;28;20032;-71
2023/09/06 12:25:38;;;;;;;39.28;24.00;;;30.90;99.90;;;;;;5067612;28;20502;-68
2023/09/06 12:28:05;;;;;;;42.33;24.02;;;30.90;99.90;;;;;;5065006;28;20052;-68
2023/09/06 12:30:31;;;;;;;42.63;25.17;;;30.90;99.90;;;;;;5059506;28;20056;-66
2023/09/06 12:32:58;;;;;;;40.60;25.67;;;30.90;99.90;;;;;;5068370;28;20116;-68
2023/09/06 12:35:25;;;;;;;62.45;38.95;;;30.80;99.90;;;;;;5063189;28;20122;-69
2023/09/06 12:37:52;;;;;;;48.70;29.85;;;30.80;99.90;;;;;;5056259;28;20139;-68